KHRO/HRO METAR and TAF weather

Enter ICAO airport designator
Station Type Date Time Source
KHRO METAR 2022/01/18 06:53 UTC NOAA

KHRO 180653Z AUTO 15006KT 10SM CLR 01/M02 A3001 RMK AO2 SLP168 T00111022 $


Station Type Date Time Source
KHRO Decoded METAR 2022/01/18 06:53 UTC NOAA

HARRISON BOONE COUNTY AIRPORT , AR, United States (KHRO) 36-16N 093-09W 417M
Jan 18, 2022 - 01:53 AM EST / 2022.01.18 0653 UTC
Wind: from the SSE (150 degrees) at 7 MPH (6 KT):0
Visibility: 10 mile(s):0
Sky conditions: clear
Temperature: 34.0 F (1.1 C)
Windchill: 28 F (-2 C):1
Dew Point: 28.0 F (-2.2 C)
Relative Humidity: 78%
Pressure (altimeter): 30.01 in. Hg (1016 hPa)
ob: KHRO 180653Z AUTO 15006KT 10SM CLR 01/M02 A3001 RMK AO2 SLP168 T00111022
cycle: 7

Station Type Date Time Source
KHRO TAF 2022/01/18 06:22 UTC NOAA

TAF KHRO 180520Z 1806/1906 15004KT P6SM SKC
FM181500 16012G20KT P6SM SCT250 WS015/22040KT
FM190000 15009KT P6SM BKN120

Example: see airport list